Magnus Heinason — OW2252 — position and weather

sailwx.info

Track history (hours):
 
Tides and Currents Weather Stations Pressure Air Temp Water Temp Dewpoint Dewpoint Depression Visibility Wind Speed Wind Dir Waves Ship Positions

Oceanographic research ship Magnus Heinason (Faroe Islands)

Detailed information on ship capabilities available from ARCUS's ALIAS (Arctic Logistics Information and Support) project.

Last reported at 2017-Jun-16 00:08 UTC. Time now 2017-Jun-23 20:38 UTC.
Position N 61°36' W 005°39'.

Length 44 m; draft 4 m.

Type: . MMSI: 231041000.

Date/timePositionNaut miles runAvg speedWind from/ knotsBaromVisibWave heightAir tempDewpointWater temp
2017-Jun-16 00:08N 61°36' W 005°39'0 1.7
2017-Jun-15 23:50N 61°36' W 005°40'0 0.9
2017-Jun-15 23:22N 61°35' W 005°41'1 1.6
2017-Jun-15 22:59N 61°36' W 005°42'4 8.6
2017-Jun-15 22:30N 61°39' W 005°47'1 2.9
2017-Jun-15 22:00N 61°40' W 005°49'0 0.6
2017-Jun-15 21:31N 61°40' W 005°49'4 6.9
2017-Jun-15 20:59N 61°42' W 005°44'2 4.3
2017-Jun-15 20:30N 61°44' W 005°41'0 0.6
2017-Jun-15 19:59N 61°44' W 005°41'2 5.1
2017-Jun-15 19:31N 61°46' W 005°43'4 7.9
2017-Jun-15 19:00N 61°49' W 005°47'0 0.4
2017-Jun-15 18:30N 61°50' W 005°46'0 0.3
2017-Jun-15 18:01N 61°50' W 005°46'4 8.3
2017-Jun-15 17:31N 61°54' W 005°50'1 1.6
2017-Jun-15 17:01N 61°54' W 005°50'0 0.4
2017-Jun-15 16:31N 61°55' W 005°50'2 4.7
2017-Jun-15 16:01N 61°55' W 005°55'4 8.9
2017-Jun-15 15:31N 61°57' W 006°04'5 9.2
2017-Jun-15 15:00N 61°59' W 006°12'5 9.4
2017-Jun-15 14:30N 62°00' W 006°21'8 7.9
2017-Jun-15 13:31N 62°02' W 006°38'0 0.6
2017-Jun-15 13:01N 62°02' W 006°38'1 2.5
2017-Jun-15 12:31N 62°02' W 006°41'3 5.8
2017-Jun-15 12:01N 62°00' W 006°46'0 0.4
2017-Jun-15 11:30N 62°00' W 006°46'0 0.0
2017-Jun-15 11:01N 62°00' W 006°46'0 0.0
2017-Jun-15 10:30N 62°00' W 006°46'0 0.0
2017-Jun-15 10:00N 62°00' W 006°46'0 0.0
2017-Jun-15 09:31N 62°00' W 006°46'0 0.0
2017-Jun-15 09:00N 62°00' W 006°46'0 0.0
2017-Jun-15 08:30N 62°00' W 006°46'0 0.0
2017-Jun-15 08:00N 62°00' W 006°46'0 0.0
2017-Jun-15 07:31N 62°00' W 006°46'0 0.0
2017-Jun-15 07:01N 62°00' W 006°46'0 0.0
2017-Jun-15 06:31N 62°00' W 006°46'0 0.0
2017-Jun-15 06:01N 62°00' W 006°46'0 0.0
2017-Jun-15 05:31N 62°00' W 006°46'0 0.0
2017-Jun-15 05:01N 62°00' W 006°46'0 0.0
2017-Jun-15 04:31N 62°00' W 006°46'0 0.0
2017-Jun-15 04:01N 62°00' W 006°46'0 0.0
2017-Jun-15 03:31N 62°00' W 006°46'0 0.0
2017-Jun-15 03:01N 62°00' W 006°46'0 0.0
2017-Jun-15 02:31N 62°00' W 006°46'0 0.0
2017-Jun-15 02:01N 62°00' W 006°46'0 0.0
2017-Jun-15 01:30N 62°00' W 006°46'0 0.0
2017-Jun-15 01:01N 62°00' W 006°46'0 0.0
2017-Jun-15 00:30N 62°00' W 006°46'0 0.0
2017-Jun-15 00:01N 62°00' W 006°46'0 0.0
2017-Jun-14 23:30N 62°00' W 006°46'0 0.0
2017-Jun-14 23:00N 62°00' W 006°46'0 0.0
2017-Jun-14 22:31N 62°00' W 006°46'0 0.0
2017-Jun-14 22:00N 62°00' W 006°46'0 0.0
2017-Jun-14 21:30N 62°00' W 006°46'0 0.0
2017-Jun-14 21:01N 62°00' W 006°46'0 0.0
2017-Jun-14 20:31N 62°00' W 006°46'0 0.0
2017-Jun-14 20:01N 62°00' W 006°46'0 0.0
2017-Jun-14 19:30N 62°00' W 006°46'0 0.0
2017-Jun-14 19:01N 62°00' W 006°46'0 0.0
2017-Jun-14 18:30N 62°00' W 006°46'0 0.0
2017-Jun-14 18:00N 62°00' W 006°46'0 0.0
2017-Jun-14 17:31N 62°00' W 006°46'0 0.0
2017-Jun-14 17:01N 62°00' W 006°46'0 0.0
2017-Jun-14 16:31N 62°00' W 006°46'0 0.0
2017-Jun-14 16:01N 62°00' W 006°46'0 0.0
2017-Jun-14 15:31N 62°00' W 006°46'0 0.0
2017-Jun-14 15:00N 62°00' W 006°46'0 0.0
2017-Jun-14 14:01N 62°00' W 006°46'0 0.0
2017-Jun-14 13:31N 62°00' W 006°46'0 0.0
2017-Jun-14 10:05N 62°00' W 006°46'0 0.1
2017-Jun-14 10:00N 62°00' W 006°46'  
Track history (hours):
 
Tides and Currents Weather Stations Pressure Air Temp Water Temp Dewpoint Dewpoint Depression Visibility Wind Speed Wind Dir Waves Ship Positions

Oceanographic research ship Magnus Heinason (Faroe Islands)

Detailed information on ship capabilities available from ARCUS's ALIAS (Arctic Logistics Information and Support) project.

Last reported at 2017-Jun-16 00:08 UTC. Time now 2017-Jun-23 20:38 UTC.
Position N 61°36' W 005°39'.

Length 44 m; draft 4 m.

Type: . MMSI: 231041000.

Date/timePositionNaut miles runAvg speedWind from/ knotsBaromVisibWave heightAir tempDewpointWater temp
2017-Jun-16 00:08N 61°36' W 005°39'0 1.7
2017-Jun-15 23:50N 61°36' W 005°40'0 0.9
2017-Jun-15 23:22N 61°35' W 005°41'1 1.6
2017-Jun-15 22:59N 61°36' W 005°42'4 8.6
2017-Jun-15 22:30N 61°39' W 005°47'1 2.9
2017-Jun-15 22:00N 61°40' W 005°49'0 0.6
2017-Jun-15 21:31N 61°40' W 005°49'4 6.9
2017-Jun-15 20:59N 61°42' W 005°44'2 4.3
2017-Jun-15 20:30N 61°44' W 005°41'0 0.6
2017-Jun-15 19:59N 61°44' W 005°41'2 5.1
2017-Jun-15 19:31N 61°46' W 005°43'4 7.9
2017-Jun-15 19:00N 61°49' W 005°47'0 0.4
2017-Jun-15 18:30N 61°50' W 005°46'0 0.3
2017-Jun-15 18:01N 61°50' W 005°46'4 8.3
2017-Jun-15 17:31N 61°54' W 005°50'1 1.6
2017-Jun-15 17:01N 61°54' W 005°50'0 0.4
2017-Jun-15 16:31N 61°55' W 005°50'2 4.7
2017-Jun-15 16:01N 61°55' W 005°55'4 8.9
2017-Jun-15 15:31N 61°57' W 006°04'5 9.2
2017-Jun-15 15:00N 61°59' W 006°12'5 9.4
2017-Jun-15 14:30N 62°00' W 006°21'8 7.9
2017-Jun-15 13:31N 62°02' W 006°38'0 0.6
2017-Jun-15 13:01N 62°02' W 006°38'1 2.5
2017-Jun-15 12:31N 62°02' W 006°41'3 5.8
2017-Jun-15 12:01N 62°00' W 006°46'0 0.4
2017-Jun-15 11:30N 62°00' W 006°46'0 0.0
2017-Jun-15 11:01N 62°00' W 006°46'0 0.0
2017-Jun-15 10:30N 62°00' W 006°46'0 0.0
2017-Jun-15 10:00N 62°00' W 006°46'0 0.0
2017-Jun-15 09:31N 62°00' W 006°46'0 0.0
2017-Jun-15 09:00N 62°00' W 006°46'0 0.0
2017-Jun-15 08:30N 62°00' W 006°46'0 0.0
2017-Jun-15 08:00N 62°00' W 006°46'0 0.0
2017-Jun-15 07:31N 62°00' W 006°46'0 0.0
2017-Jun-15 07:01N 62°00' W 006°46'0 0.0
2017-Jun-15 06:31N 62°00' W 006°46'0 0.0
2017-Jun-15 06:01N 62°00' W 006°46'0 0.0
2017-Jun-15 05:31N 62°00' W 006°46'0 0.0
2017-Jun-15 05:01N 62°00' W 006°46'0 0.0
2017-Jun-15 04:31N 62°00' W 006°46'0 0.0
2017-Jun-15 04:01N 62°00' W 006°46'0 0.0
2017-Jun-15 03:31N 62°00' W 006°46'0 0.0
2017-Jun-15 03:01N 62°00' W 006°46'0 0.0
2017-Jun-15 02:31N 62°00' W 006°46'0 0.0
2017-Jun-15 02:01N 62°00' W 006°46'0 0.0
2017-Jun-15 01:30N 62°00' W 006°46'0 0.0
2017-Jun-15 01:01N 62°00' W 006°46'0 0.0
2017-Jun-15 00:30N 62°00' W 006°46'0 0.0
2017-Jun-15 00:01N 62°00' W 006°46'0 0.0
2017-Jun-14 23:30N 62°00' W 006°46'0 0.0
2017-Jun-14 23:00N 62°00' W 006°46'0 0.0
2017-Jun-14 22:31N 62°00' W 006°46'0 0.0
2017-Jun-14 22:00N 62°00' W 006°46'0 0.0
2017-Jun-14 21:30N 62°00' W 006°46'0 0.0
2017-Jun-14 21:01N 62°00' W 006°46'0 0.0
2017-Jun-14 20:31N 62°00' W 006°46'0 0.0
2017-Jun-14 20:01N 62°00' W 006°46'0 0.0
2017-Jun-14 19:30N 62°00' W 006°46'0 0.0
2017-Jun-14 19:01N 62°00' W 006°46'0 0.0
2017-Jun-14 18:30N 62°00' W 006°46'0 0.0
2017-Jun-14 18:00N 62°00' W 006°46'0 0.0
2017-Jun-14 17:31N 62°00' W 006°46'0 0.0
2017-Jun-14 17:01N 62°00' W 006°46'0 0.0
2017-Jun-14 16:31N 62°00' W 006°46'0 0.0
2017-Jun-14 16:01N 62°00' W 006°46'0 0.0
2017-Jun-14 15:31N 62°00' W 006°46'0 0.0
2017-Jun-14 15:00N 62°00' W 006°46'0 0.0
2017-Jun-14 14:01N 62°00' W 006°46'0 0.0
2017-Jun-14 13:31N 62°00' W 006°46'0 0.0
2017-Jun-14 10:05N 62°00' W 006°46'0 0.1
2017-Jun-14 10:00N 62°00' W 006°46'  

Dump ship's entire track history